sensor_id;sensor_type;location;lat;lon;timestamp;P1;durP1;ratioP1;P2;durP2;ratioP2
70953;SDS011;58618;47.490;8.736;2022-10-03T00:02:38;0.50;;;0.50;;
70953;SDS011;58618;47.490;8.736;2022-10-03T00:06:08;0.65;;;0.50;;
70953;SDS011;58618;47.490;8.736;2022-10-03T00:09:05;0.60;;;0.50;;
70953;SDS011;58618;47.490;8.736;2022-10-03T00:12:07;0.50;;;0.50;;
70953;SDS011;58618;47.490;8.736;2022-10-03T00:15:01;0.82;;;0.50;;
70953;SDS011;58618;47.490;8.736;2022-10-03T00:17:54;0.60;;;0.50;;
70953;SDS011;58618;47.490;8.736;2022-10-03T00:20:59;1.55;;;0.60;;
70953;SDS011;58618;47.490;8.736;2022-10-03T00:23:58;0.40;;;0.40;;
70953;SDS011;58618;47.490;8.736;2022-10-03T00:26:56;0.95;;;0.60;;
70953;SDS011;58618;47.490;8.736;2022-10-03T00:29:52;1.05;;;0.50;;
70953;SDS011;58618;47.490;8.736;2022-10-03T00:33:01;0.40;;;0.40;;
70953;SDS011;58618;47.490;8.736;2022-10-03T00:36:03;0.50;;;0.50;;
70953;SDS011;58618;47.490;8.736;2022-10-03T00:39:02;0.70;;;0.57;;
70953;SDS011;58618;47.490;8.736;2022-10-03T00:45:29;0.50;;;0.50;;
70953;SDS011;58618;47.490;8.736;2022-10-03T00:48:30;0.50;;;0.50;;
70953;SDS011;58618;47.490;8.736;2022-10-03T00:51:42;1.25;;;0.50;;
70953;SDS011;58618;47.490;8.736;2022-10-03T00:54:40;0.40;;;0.40;;
70953;SDS011;58618;47.490;8.736;2022-10-03T00:57:42;0.52;;;0.50;;
70953;SDS011;58618;47.490;8.736;2022-10-03T01:00:45;0.40;;;0.40;;
70953;SDS011;58618;47.490;8.736;2022-10-03T01:03:38;0.50;;;0.50;;
70953;SDS011;58618;47.490;8.736;2022-10-03T01:06:34;0.50;;;0.50;;
70953;SDS011;58618;47.490;8.736;2022-10-03T01:09:32;0.50;;;0.50;;
70953;SDS011;58618;47.490;8.736;2022-10-03T01:15:46;0.73;;;0.50;;
70953;SDS011;58618;47.490;8.736;2022-10-03T01:18:43;0.60;;;0.55;;
70953;SDS011;58618;47.490;8.736;2022-10-03T01:21:43;0.50;;;0.50;;
70953;SDS011;58618;47.490;8.736;2022-10-03T01:24:42;0.60;;;0.50;;
70953;SDS011;58618;47.490;8.736;2022-10-03T01:27:40;0.40;;;0.40;;
70953;SDS011;58618;47.490;8.736;2022-10-03T01:30:48;0.63;;;0.40;;
70953;SDS011;58618;47.490;8.736;2022-10-03T01:33:41;0.50;;;0.40;;
70953;SDS011;58618;47.490;8.736;2022-10-03T01:36:30;0.50;;;0.50;;
70953;SDS011;58618;47.490;8.736;2022-10-03T01:39:26;0.47;;;0.47;;
70953;SDS011;58618;47.490;8.736;2022-10-03T01:42:19;0.50;;;0.50;;
70953;SDS011;58618;47.490;8.736;2022-10-03T01:45:25;0.40;;;0.40;;
70953;SDS011;58618;47.490;8.736;2022-10-03T01:48:20;0.68;;;0.50;;
70953;SDS011;58618;47.490;8.736;2022-10-03T01:51:12;1.17;;;0.50;;
70953;SDS011;58618;47.490;8.736;2022-10-03T01:54:05;0.50;;;0.50;;
70953;SDS011;58618;47.490;8.736;2022-10-03T01:57:03;0.57;;;0.40;;
70953;SDS011;58618;47.490;8.736;2022-10-03T02:00:00;0.40;;;0.40;;
70953;SDS011;58618;47.490;8.736;2022-10-03T02:02:53;0.70;;;0.60;;
70953;SDS011;58618;47.490;8.736;2022-10-03T02:05:48;0.55;;;0.50;;
70953;SDS011;58618;47.490;8.736;2022-10-03T02:08:46;1.10;;;0.60;;
70953;SDS011;58618;47.490;8.736;2022-10-03T02:11:42;0.47;;;0.47;;
70953;SDS011;58618;47.490;8.736;2022-10-03T02:14:47;0.40;;;0.40;;
70953;SDS011;58618;47.490;8.736;2022-10-03T02:17:45;0.68;;;0.60;;
70953;SDS011;58618;47.490;8.736;2022-10-03T02:20:40;0.90;;;0.60;;
70953;SDS011;58618;47.490;8.736;2022-10-03T02:23:39;0.80;;;0.57;;
70953;SDS011;58618;47.490;8.736;2022-10-03T02:30:12;0.55;;;0.50;;
70953;SDS011;58618;47.490;8.736;2022-10-03T02:33:14;0.73;;;0.52;;
70953;SDS011;58618;47.490;8.736;2022-10-03T02:39:55;0.60;;;0.53;;
70953;SDS011;58618;47.490;8.736;2022-10-03T02:43:14;1.35;;;0.50;;
70953;SDS011;58618;47.490;8.736;2022-10-03T02:49:55;0.50;;;0.50;;
70953;SDS011;58618;47.490;8.736;2022-10-03T02:59:55;0.73;;;0.63;;
70953;SDS011;58618;47.490;8.736;2022-10-03T03:03:11;0.70;;;0.50;;
70953;SDS011;58618;47.490;8.736;2022-10-03T03:06:30;0.90;;;0.70;;
70953;SDS011;58618;47.490;8.736;2022-10-03T03:09:52;0.75;;;0.60;;
70953;SDS011;58618;47.490;8.736;2022-10-03T03:16:35;0.70;;;0.60;;
70953;SDS011;58618;47.490;8.736;2022-10-03T03:19:34;0.75;;;0.60;;
70953;SDS011;58618;47.490;8.736;2022-10-03T03:22:35;0.77;;;0.60;;
70953;SDS011;58618;47.490;8.736;2022-10-03T03:25:38;0.73;;;0.60;;
70953;SDS011;58618;47.490;8.736;2022-10-03T03:28:48;1.40;;;0.60;;
70953;SDS011;58618;47.490;8.736;2022-10-03T03:31:48;0.52;;;0.45;;
70953;SDS011;58618;47.490;8.736;2022-10-03T03:34:49;0.63;;;0.52;;
70953;SDS011;58618;47.490;8.736;2022-10-03T03:37:45;0.57;;;0.50;;
70953;SDS011;58618;47.490;8.736;2022-10-03T03:40:44;0.60;;;0.60;;
70953;SDS011;58618;47.490;8.736;2022-10-03T03:43:51;1.37;;;0.80;;
70953;SDS011;58618;47.490;8.736;2022-10-03T03:46:57;0.90;;;0.73;;
70953;SDS011;58618;47.490;8.736;2022-10-03T03:50:00;1.35;;;0.90;;
70953;SDS011;58618;47.490;8.736;2022-10-03T03:53:05;3.25;;;1.00;;
70953;SDS011;58618;47.490;8.736;2022-10-03T03:56:32;2.03;;;1.00;;
70953;SDS011;58618;47.490;8.736;2022-10-03T03:59:40;1.53;;;1.13;;
70953;SDS011;58618;47.490;8.736;2022-10-03T04:02:52;2.22;;;1.25;;
70953;SDS011;58618;47.490;8.736;2022-10-03T04:05:55;1.35;;;1.05;;
70953;SDS011;58618;47.490;8.736;2022-10-03T04:09:02;2.10;;;1.40;;
70953;SDS011;58618;47.490;8.736;2022-10-03T04:12:06;2.22;;;1.30;;
70953;SDS011;58618;47.490;8.736;2022-10-03T04:15:14;2.00;;;1.30;;
70953;SDS011;58618;47.490;8.736;2022-10-03T04:18:27;1.80;;;1.27;;
70953;SDS011;58618;47.490;8.736;2022-10-03T04:21:48;1.70;;;1.27;;
70953;SDS011;58618;47.490;8.736;2022-10-03T04:25:05;2.03;;;1.42;;
70953;SDS011;58618;47.490;8.736;2022-10-03T04:31:25;1.90;;;1.27;;
70953;SDS011;58618;47.490;8.736;2022-10-03T04:34:33;2.20;;;1.13;;
70953;SDS011;58618;47.490;8.736;2022-10-03T04:37:33;1.27;;;0.98;;
70953;SDS011;58618;47.490;8.736;2022-10-03T04:40:32;1.10;;;1.00;;
70953;SDS011;58618;47.490;8.736;2022-10-03T04:43:32;0.90;;;0.70;;
70953;SDS011;58618;47.490;8.736;2022-10-03T04:46:28;1.40;;;1.00;;
70953;SDS011;58618;47.490;8.736;2022-10-03T04:49:22;2.40;;;1.10;;
70953;SDS011;58618;47.490;8.736;2022-10-03T04:52:17;1.10;;;0.80;;
70953;SDS011;58618;47.490;8.736;2022-10-03T04:55:16;1.25;;;0.70;;
70953;SDS011;58618;47.490;8.736;2022-10-03T04:58:14;1.25;;;1.00;;
70953;SDS011;58618;47.490;8.736;2022-10-03T05:01:12;2.23;;;0.90;;
70953;SDS011;58618;47.490;8.736;2022-10-03T05:04:08;2.10;;;0.98;;
70953;SDS011;58618;47.490;8.736;2022-10-03T05:07:06;2.88;;;1.13;;
70953;SDS011;58618;47.490;8.736;2022-10-03T05:10:04;1.38;;;0.95;;
70953;SDS011;58618;47.490;8.736;2022-10-03T05:13:11;1.48;;;1.10;;
70953;SDS011;58618;47.490;8.736;2022-10-03T05:16:03;1.43;;;0.90;;
70953;SDS011;58618;47.490;8.736;2022-10-03T05:19:04;1.50;;;0.95;;
70953;SDS011;58618;47.490;8.736;2022-10-03T05:22:09;1.13;;;0.90;;
70953;SDS011;58618;47.490;8.736;2022-10-03T05:25:14;1.33;;;0.98;;
70953;SDS011;58618;47.490;8.736;2022-10-03T05:28:11;0.90;;;0.73;;
70953;SDS011;58618;47.490;8.736;2022-10-03T05:31:11;1.13;;;0.87;;
70953;SDS011;58618;47.490;8.736;2022-10-03T05:34:10;1.52;;;0.98;;
70953;SDS011;58618;47.490;8.736;2022-10-03T05:37:18;1.35;;;0.90;;
70953;SDS011;58618;47.490;8.736;2022-10-03T05:40:20;1.30;;;1.00;;
70953;SDS011;58618;47.490;8.736;2022-10-03T05:43:15;1.63;;;1.10;;
70953;SDS011;58618;47.490;8.736;2022-10-03T05:46:18;1.30;;;0.80;;
70953;SDS011;58618;47.490;8.736;2022-10-03T05:49:18;1.70;;;1.00;;
70953;SDS011;58618;47.490;8.736;2022-10-03T05:52:32;1.83;;;1.20;;
70953;SDS011;58618;47.490;8.736;2022-10-03T05:55:44;2.33;;;1.25;;
70953;SDS011;58618;47.490;8.736;2022-10-03T05:58:41;1.55;;;1.10;;
70953;SDS011;58618;47.490;8.736;2022-10-03T06:02:01;2.00;;;1.30;;
70953;SDS011;58618;47.490;8.736;2022-10-03T06:05:14;3.92;;;1.30;;
70953;SDS011;58618;47.490;8.736;2022-10-03T06:08:19;2.45;;;1.60;;
70953;SDS011;58618;47.490;8.736;2022-10-03T06:11:33;2.20;;;1.30;;
70953;SDS011;58618;47.490;8.736;2022-10-03T06:17:59;2.70;;;1.47;;
70953;SDS011;58618;47.490;8.736;2022-10-03T06:24:30;5.72;;;2.17;;
70953;SDS011;58618;47.490;8.736;2022-10-03T06:27:58;2.30;;;1.67;;
70953;SDS011;58618;47.490;8.736;2022-10-03T06:31:12;3.95;;;1.95;;
70953;SDS011;58618;47.490;8.736;2022-10-03T06:37:59;2.45;;;1.70;;
70953;SDS011;58618;47.490;8.736;2022-10-03T06:41:31;4.97;;;1.98;;
70953;SDS011;58618;47.490;8.736;2022-10-03T06:48:08;4.13;;;1.60;;
70953;SDS011;58618;47.490;8.736;2022-10-03T06:54:58;4.78;;;1.95;;
70953;SDS011;58618;47.490;8.736;2022-10-03T07:02:01;5.13;;;1.70;;
70953;SDS011;58618;47.490;8.736;2022-10-03T07:12:04;3.15;;;1.80;;
70953;SDS011;58618;47.490;8.736;2022-10-03T07:22:16;4.07;;;2.10;;
70953;SDS011;58618;47.490;8.736;2022-10-03T07:25:29;3.20;;;1.93;;
70953;SDS011;58618;47.490;8.736;2022-10-03T07:28:44;3.63;;;2.13;;
70953;SDS011;58618;47.490;8.736;2022-10-03T07:31:56;4.40;;;1.75;;
70953;SDS011;58618;47.490;8.736;2022-10-03T07:35:06;3.63;;;2.00;;
70953;SDS011;58618;47.490;8.736;2022-10-03T07:38:31;5.25;;;2.15;;
70953;SDS011;58618;47.490;8.736;2022-10-03T07:45:11;3.45;;;2.00;;
70953;SDS011;58618;47.490;8.736;2022-10-03T07:51:13;3.28;;;1.95;;
70953;SDS011;58618;47.490;8.736;2022-10-03T07:57:39;3.03;;;1.80;;
70953;SDS011;58618;47.490;8.736;2022-10-03T08:00:46;3.03;;;1.65;;
70953;SDS011;58618;47.490;8.736;2022-10-03T08:03:55;2.88;;;1.88;;
70953;SDS011;58618;47.490;8.736;2022-10-03T08:07:20;3.08;;;2.03;;
70953;SDS011;58618;47.490;8.736;2022-10-03T08:10:29;3.45;;;2.15;;
70953;SDS011;58618;47.490;8.736;2022-10-03T08:13:40;2.77;;;1.80;;
70953;SDS011;58618;47.490;8.736;2022-10-03T08:17:00;2.85;;;1.90;;
70953;SDS011;58618;47.490;8.736;2022-10-03T08:20:06;3.00;;;1.95;;
70953;SDS011;58618;47.490;8.736;2022-10-03T08:23:17;3.15;;;1.90;;
70953;SDS011;58618;47.490;8.736;2022-10-03T08:26:27;3.75;;;1.88;;
70953;SDS011;58618;47.490;8.736;2022-10-03T08:29:31;4.03;;;1.77;;
70953;SDS011;58618;47.490;8.736;2022-10-03T08:32:45;2.58;;;1.63;;
70953;SDS011;58618;47.490;8.736;2022-10-03T08:35:58;2.30;;;1.42;;
70953;SDS011;58618;47.490;8.736;2022-10-03T08:39:18;3.38;;;1.60;;
70953;SDS011;58618;47.490;8.736;2022-10-03T08:42:46;2.50;;;1.60;;
70953;SDS011;58618;47.490;8.736;2022-10-03T08:46:02;3.03;;;1.70;;
70953;SDS011;58618;47.490;8.736;2022-10-03T08:49:02;2.30;;;1.67;;
70953;SDS011;58618;47.490;8.736;2022-10-03T08:52:10;2.67;;;1.63;;
70953;SDS011;58618;47.490;8.736;2022-10-03T08:55:20;2.38;;;1.63;;
70953;SDS011;58618;47.490;8.736;2022-10-03T09:05:29;2.22;;;1.60;;
70953;SDS011;58618;47.490;8.736;2022-10-03T09:11:54;3.90;;;1.50;;
70953;SDS011;58618;47.490;8.736;2022-10-03T09:18:53;3.97;;;1.57;;
70953;SDS011;58618;47.490;8.736;2022-10-03T09:22:09;2.60;;;1.60;;
70953;SDS011;58618;47.490;8.736;2022-10-03T09:25:18;2.03;;;1.42;;
70953;SDS011;58618;47.490;8.736;2022-10-03T09:28:26;2.17;;;1.45;;
70953;SDS011;58618;47.490;8.736;2022-10-03T09:31:38;2.22;;;1.58;;
70953;SDS011;58618;47.490;8.736;2022-10-03T09:34:53;2.43;;;1.40;;
70953;SDS011;58618;47.490;8.736;2022-10-03T09:38:07;3.53;;;1.85;;
70953;SDS011;58618;47.490;8.736;2022-10-03T09:41:33;2.78;;;1.67;;
70953;SDS011;58618;47.490;8.736;2022-10-03T09:48:29;2.00;;;1.45;;
70953;SDS011;58618;47.490;8.736;2022-10-03T09:51:33;2.00;;;1.37;;
70953;SDS011;58618;47.490;8.736;2022-10-03T09:54:51;1.92;;;1.30;;
70953;SDS011;58618;47.490;8.736;2022-10-03T10:00:21;2.20;;;1.55;;
70953;SDS011;58618;47.490;8.736;2022-10-03T10:06:47;2.13;;;1.57;;
70953;SDS011;58618;47.490;8.736;2022-10-03T10:09:55;3.38;;;1.55;;
70953;SDS011;58618;47.490;8.736;2022-10-03T10:13:11;1.95;;;1.40;;
70953;SDS011;58618;47.490;8.736;2022-10-03T10:16:15;2.25;;;1.20;;
70953;SDS011;58618;47.490;8.736;2022-10-03T10:19:30;1.80;;;1.30;;
70953;SDS011;58618;47.490;8.736;2022-10-03T10:22:49;2.33;;;1.40;;
70953;SDS011;58618;47.490;8.736;2022-10-03T10:36:44;1.50;;;1.00;;
70953;SDS011;58618;47.490;8.736;2022-10-03T10:40:08;1.00;;;0.77;;
70953;SDS011;58618;47.490;8.736;2022-10-03T10:43:33;0.98;;;0.80;;
70953;SDS011;58618;47.490;8.736;2022-10-03T10:50:24;0.90;;;0.80;;
70953;SDS011;58618;47.490;8.736;2022-10-03T10:57:15;1.93;;;1.33;;
70953;SDS011;58618;47.490;8.736;2022-10-03T11:00:19;1.67;;;1.30;;
70953;SDS011;58618;47.490;8.736;2022-10-03T11:03:30;2.55;;;1.27;;
70953;SDS011;58618;47.490;8.736;2022-10-03T11:06:56;1.67;;;1.15;;
70953;SDS011;58618;47.490;8.736;2022-10-03T11:10:21;2.90;;;1.40;;
70953;SDS011;58618;47.490;8.736;2022-10-03T11:13:27;2.50;;;1.13;;
70953;SDS011;58618;47.490;8.736;2022-10-03T11:17:06;1.38;;;1.08;;
70953;SDS011;58618;47.490;8.736;2022-10-03T11:20:34;1.55;;;1.00;;
70953;SDS011;58618;47.490;8.736;2022-10-03T11:27:20;2.10;;;1.35;;
70953;SDS011;58618;47.490;8.736;2022-10-03T11:30:36;1.57;;;0.97;;
70953;SDS011;58618;47.490;8.736;2022-10-03T11:37:18;2.13;;;1.05;;
70953;SDS011;58618;47.490;8.736;2022-10-03T11:40:21;1.50;;;1.10;;
70953;SDS011;58618;47.490;8.736;2022-10-03T11:43:35;1.90;;;1.27;;
70953;SDS011;58618;47.490;8.736;2022-10-03T11:53:32;1.73;;;1.30;;
70953;SDS011;58618;47.490;8.736;2022-10-03T11:56:29;2.45;;;1.13;;
70953;SDS011;58618;47.490;8.736;2022-10-03T12:02:48;2.13;;;1.20;;
70953;SDS011;58618;47.490;8.736;2022-10-03T12:05:53;1.38;;;1.20;;
70953;SDS011;58618;47.490;8.736;2022-10-03T12:09:01;1.60;;;1.00;;
70953;SDS011;58618;47.490;8.736;2022-10-03T12:12:03;2.38;;;1.00;;
70953;SDS011;58618;47.490;8.736;2022-10-03T12:14:57;1.23;;;1.00;;
70953;SDS011;58618;47.490;8.736;2022-10-03T12:18:06;1.17;;;1.00;;
70953;SDS011;58618;47.490;8.736;2022-10-03T12:21:05;1.48;;;1.10;;
70953;SDS011;58618;47.490;8.736;2022-10-03T12:24:04;1.52;;;0.98;;
70953;SDS011;58618;47.490;8.736;2022-10-03T12:27:10;1.52;;;1.10;;
70953;SDS011;58618;47.490;8.736;2022-10-03T12:30:10;1.33;;;1.08;;
70953;SDS011;58618;47.490;8.736;2022-10-03T12:33:05;2.07;;;1.13;;
70953;SDS011;58618;47.490;8.736;2022-10-03T12:36:10;1.38;;;1.13;;
70953;SDS011;58618;47.490;8.736;2022-10-03T12:39:03;1.33;;;0.90;;
70953;SDS011;58618;47.490;8.736;2022-10-03T12:42:05;2.28;;;0.93;;
70953;SDS011;58618;47.490;8.736;2022-10-03T12:45:03;1.83;;;1.15;;
70953;SDS011;58618;47.490;8.736;2022-10-03T12:48:10;1.10;;;1.00;;
70953;SDS011;58618;47.490;8.736;2022-10-03T12:51:28;2.05;;;1.10;;
70953;SDS011;58618;47.490;8.736;2022-10-03T12:54:41;1.30;;;0.85;;
70953;SDS011;58618;47.490;8.736;2022-10-03T13:00:50;1.73;;;1.20;;
70953;SDS011;58618;47.490;8.736;2022-10-03T13:03:47;1.73;;;1.13;;
70953;SDS011;58618;47.490;8.736;2022-10-03T13:06:44;1.55;;;1.25;;
70953;SDS011;58618;47.490;8.736;2022-10-03T13:09:55;1.70;;;1.30;;
70953;SDS011;58618;47.490;8.736;2022-10-03T13:12:48;1.20;;;1.00;;
70953;SDS011;58618;47.490;8.736;2022-10-03T13:19:01;1.47;;;0.93;;
70953;SDS011;58618;47.490;8.736;2022-10-03T13:21:59;2.10;;;1.20;;
70953;SDS011;58618;47.490;8.736;2022-10-03T13:24:53;2.20;;;1.00;;
70953;SDS011;58618;47.490;8.736;2022-10-03T13:27:49;1.40;;;0.98;;
70953;SDS011;58618;47.490;8.736;2022-10-03T13:30:42;1.33;;;1.08;;
70953;SDS011;58618;47.490;8.736;2022-10-03T13:33:35;1.20;;;1.00;;
70953;SDS011;58618;47.490;8.736;2022-10-03T13:36:37;1.20;;;0.90;;
70953;SDS011;58618;47.490;8.736;2022-10-03T13:39:35;1.30;;;0.93;;
70953;SDS011;58618;47.490;8.736;2022-10-03T13:42:34;2.88;;;1.05;;
70953;SDS011;58618;47.490;8.736;2022-10-03T13:45:26;2.40;;;1.30;;
70953;SDS011;58618;47.490;8.736;2022-10-03T13:48:17;1.50;;;0.87;;
70953;SDS011;58618;47.490;8.736;2022-10-03T13:51:11;1.50;;;0.90;;
70953;SDS011;58618;47.490;8.736;2022-10-03T13:54:07;2.03;;;1.10;;
70953;SDS011;58618;47.490;8.736;2022-10-03T13:57:07;1.20;;;1.00;;
70953;SDS011;58618;47.490;8.736;2022-10-03T14:00:02;1.10;;;1.00;;
70953;SDS011;58618;47.490;8.736;2022-10-03T14:02:57;1.57;;;0.90;;
70953;SDS011;58618;47.490;8.736;2022-10-03T14:06:05;1.85;;;1.00;;
70953;SDS011;58618;47.490;8.736;2022-10-03T14:09:15;1.75;;;1.10;;
70953;SDS011;58618;47.490;8.736;2022-10-03T14:12:20;1.42;;;0.90;;
70953;SDS011;58618;47.490;8.736;2022-10-03T14:15:23;1.33;;;1.10;;
70953;SDS011;58618;47.490;8.736;2022-10-03T14:18:20;1.03;;;0.87;;
70953;SDS011;58618;47.490;8.736;2022-10-03T14:21:25;0.95;;;0.80;;
70953;SDS011;58618;47.490;8.736;2022-10-03T14:27:40;2.03;;;1.15;;
70953;SDS011;58618;47.490;8.736;2022-10-03T14:30:34;1.95;;;1.13;;
70953;SDS011;58618;47.490;8.736;2022-10-03T14:33:39;2.70;;;1.30;;
70953;SDS011;58618;47.490;8.736;2022-10-03T14:36:33;2.55;;;1.20;;
70953;SDS011;58618;47.490;8.736;2022-10-03T14:39:29;1.83;;;1.23;;
70953;SDS011;58618;47.490;8.736;2022-10-03T14:42:30;1.60;;;1.10;;
70953;SDS011;58618;47.490;8.736;2022-10-03T14:45:28;2.60;;;1.27;;
70953;SDS011;58618;47.490;8.736;2022-10-03T14:48:19;1.77;;;1.20;;
70953;SDS011;58618;47.490;8.736;2022-10-03T14:51:12;1.77;;;1.40;;
70953;SDS011;58618;47.490;8.736;2022-10-03T14:54:06;1.80;;;1.00;;
70953;SDS011;58618;47.490;8.736;2022-10-03T14:57:12;3.08;;;1.10;;
70953;SDS011;58618;47.490;8.736;2022-10-03T15:00:21;2.63;;;1.55;;
70953;SDS011;58618;47.490;8.736;2022-10-03T15:03:17;1.60;;;1.37;;
70953;SDS011;58618;47.490;8.736;2022-10-03T15:06:18;2.33;;;1.40;;
70953;SDS011;58618;47.490;8.736;2022-10-03T15:09:08;2.72;;;1.33;;
70953;SDS011;58618;47.490;8.736;2022-10-03T15:15:27;1.92;;;1.30;;
70953;SDS011;58618;47.490;8.736;2022-10-03T15:18:20;1.60;;;1.00;;
70953;SDS011;58618;47.490;8.736;2022-10-03T15:21:10;2.65;;;1.67;;
70953;SDS011;58618;47.490;8.736;2022-10-03T15:24:02;1.88;;;1.30;;
70953;SDS011;58618;47.490;8.736;2022-10-03T15:26:54;1.95;;;1.35;;
70953;SDS011;58618;47.490;8.736;2022-10-03T15:29:48;2.08;;;1.27;;
70953;SDS011;58618;47.490;8.736;2022-10-03T15:32:38;1.77;;;1.20;;
70953;SDS011;58618;47.490;8.736;2022-10-03T15:35:32;2.63;;;1.30;;
70953;SDS011;58618;47.490;8.736;2022-10-03T15:38:28;2.38;;;1.60;;
70953;SDS011;58618;47.490;8.736;2022-10-03T15:41:21;1.20;;;0.95;;
70953;SDS011;58618;47.490;8.736;2022-10-03T15:44:14;2.00;;;1.45;;
70953;SDS011;58618;47.490;8.736;2022-10-03T15:47:07;1.50;;;1.20;;
70953;SDS011;58618;47.490;8.736;2022-10-03T15:50:00;1.90;;;1.40;;
70953;SDS011;58618;47.490;8.736;2022-10-03T15:52:53;1.63;;;1.38;;
70953;SDS011;58618;47.490;8.736;2022-10-03T15:55:46;1.80;;;1.30;;
70953;SDS011;58618;47.490;8.736;2022-10-03T15:58:37;1.33;;;1.20;;
70953;SDS011;58618;47.490;8.736;2022-10-03T16:01:31;1.70;;;1.20;;
70953;SDS011;58618;47.490;8.736;2022-10-03T16:04:23;2.80;;;1.33;;
70953;SDS011;58618;47.490;8.736;2022-10-03T16:07:16;3.28;;;1.33;;
70953;SDS011;58618;47.490;8.736;2022-10-03T16:10:17;1.83;;;1.35;;
70953;SDS011;58618;47.490;8.736;2022-10-03T16:13:12;2.00;;;1.38;;
70953;SDS011;58618;47.490;8.736;2022-10-03T16:16:12;1.50;;;1.13;;
70953;SDS011;58618;47.490;8.736;2022-10-03T16:19:18;2.00;;;1.33;;
70953;SDS011;58618;47.490;8.736;2022-10-03T16:22:12;1.80;;;1.35;;
70953;SDS011;58618;47.490;8.736;2022-10-03T16:25:06;2.28;;;1.52;;
70953;SDS011;58618;47.490;8.736;2022-10-03T16:27:58;2.35;;;1.60;;
70953;SDS011;58618;47.490;8.736;2022-10-03T16:30:51;3.33;;;1.73;;
70953;SDS011;58618;47.490;8.736;2022-10-03T16:33:44;1.83;;;1.40;;
70953;SDS011;58618;47.490;8.736;2022-10-03T16:36:40;2.67;;;1.30;;
70953;SDS011;58618;47.490;8.736;2022-10-03T16:39:31;2.38;;;1.55;;
70953;SDS011;58618;47.490;8.736;2022-10-03T16:42:22;1.83;;;1.30;;
70953;SDS011;58618;47.490;8.736;2022-10-03T16:45:19;1.27;;;0.97;;
70953;SDS011;58618;47.490;8.736;2022-10-03T16:48:11;6.22;;;1.60;;
70953;SDS011;58618;47.490;8.736;2022-10-03T16:51:24;2.38;;;1.60;;
70953;SDS011;58618;47.490;8.736;2022-10-03T16:54:19;2.10;;;1.50;;
70953;SDS011;58618;47.490;8.736;2022-10-03T16:57:10;2.47;;;1.23;;
70953;SDS011;58618;47.490;8.736;2022-10-03T17:00:01;1.83;;;1.20;;
70953;SDS011;58618;47.490;8.736;2022-10-03T17:02:54;1.85;;;1.27;;
70953;SDS011;58618;47.490;8.736;2022-10-03T17:05:43;2.67;;;1.67;;
70953;SDS011;58618;47.490;8.736;2022-10-03T17:08:34;2.38;;;1.58;;
70953;SDS011;58618;47.490;8.736;2022-10-03T17:11:28;1.67;;;1.20;;
70953;SDS011;58618;47.490;8.736;2022-10-03T17:14:20;3.97;;;1.60;;
70953;SDS011;58618;47.490;8.736;2022-10-03T17:17:15;2.55;;;1.63;;
70953;SDS011;58618;47.490;8.736;2022-10-03T17:20:14;2.25;;;1.40;;
70953;SDS011;58618;47.490;8.736;2022-10-03T17:23:05;2.00;;;1.60;;
70953;SDS011;58618;47.490;8.736;2022-10-03T17:25:59;2.63;;;1.60;;
70953;SDS011;58618;47.490;8.736;2022-10-03T17:28:52;2.70;;;1.73;;
70953;SDS011;58618;47.490;8.736;2022-10-03T17:31:43;2.58;;;1.55;;
70953;SDS011;58618;47.490;8.736;2022-10-03T17:34:37;2.47;;;1.70;;
70953;SDS011;58618;47.490;8.736;2022-10-03T17:37:37;2.10;;;1.70;;
70953;SDS011;58618;47.490;8.736;2022-10-03T17:40:48;2.65;;;1.60;;
70953;SDS011;58618;47.490;8.736;2022-10-03T17:43:42;3.40;;;1.87;;
70953;SDS011;58618;47.490;8.736;2022-10-03T17:46:36;1.83;;;1.40;;
70953;SDS011;58618;47.490;8.736;2022-10-03T17:49:35;1.63;;;1.17;;
70953;SDS011;58618;47.490;8.736;2022-10-03T17:52:30;2.67;;;1.35;;
70953;SDS011;58618;47.490;8.736;2022-10-03T17:55:22;2.60;;;1.13;;
70953;SDS011;58618;47.490;8.736;2022-10-03T17:58:15;3.17;;;1.70;;
70953;SDS011;58618;47.490;8.736;2022-10-03T18:01:07;2.05;;;1.38;;
70953;SDS011;58618;47.490;8.736;2022-10-03T18:03:59;1.67;;;1.10;;
70953;SDS011;58618;47.490;8.736;2022-10-03T18:06:49;3.85;;;1.50;;
70953;SDS011;58618;47.490;8.736;2022-10-03T18:09:41;2.08;;;1.30;;
70953;SDS011;58618;47.490;8.736;2022-10-03T18:12:35;1.83;;;1.20;;
70953;SDS011;58618;47.490;8.736;2022-10-03T18:19:03;1.92;;;1.45;;
70953;SDS011;58618;47.490;8.736;2022-10-03T18:21:59;4.30;;;1.50;;
70953;SDS011;58618;47.490;8.736;2022-10-03T18:24:58;2.28;;;1.33;;
70953;SDS011;58618;47.490;8.736;2022-10-03T18:28:15;2.30;;;1.33;;
70953;SDS011;58618;47.490;8.736;2022-10-03T18:31:08;2.58;;;1.45;;
70953;SDS011;58618;47.490;8.736;2022-10-03T18:34:04;2.10;;;1.55;;
70953;SDS011;58618;47.490;8.736;2022-10-03T18:36:54;2.40;;;1.25;;
70953;SDS011;58618;47.490;8.736;2022-10-03T18:39:44;1.80;;;1.10;;
70953;SDS011;58618;47.490;8.736;2022-10-03T18:42:33;1.50;;;1.10;;
70953;SDS011;58618;47.490;8.736;2022-10-03T18:45:24;1.92;;;1.30;;
70953;SDS011;58618;47.490;8.736;2022-10-03T18:48:16;2.78;;;1.25;;
70953;SDS011;58618;47.490;8.736;2022-10-03T18:51:13;1.30;;;1.08;;
70953;SDS011;58618;47.490;8.736;2022-10-03T18:54:13;1.92;;;1.30;;
70953;SDS011;58618;47.490;8.736;2022-10-03T18:57:10;1.63;;;1.20;;
70953;SDS011;58618;47.490;8.736;2022-10-03T19:00:05;1.38;;;1.05;;
70953;SDS011;58618;47.490;8.736;2022-10-03T19:03:06;1.60;;;1.05;;
70953;SDS011;58618;47.490;8.736;2022-10-03T19:06:02;1.67;;;1.17;;
70953;SDS011;58618;47.490;8.736;2022-10-03T19:08:54;2.10;;;1.38;;
70953;SDS011;58618;47.490;8.736;2022-10-03T19:11:45;2.67;;;1.73;;
70953;SDS011;58618;47.490;8.736;2022-10-03T19:14:40;2.65;;;1.40;;
70953;SDS011;58618;47.490;8.736;2022-10-03T19:17:44;2.03;;;1.40;;
70953;SDS011;58618;47.490;8.736;2022-10-03T19:20:39;2.58;;;1.77;;
70953;SDS011;58618;47.490;8.736;2022-10-03T19:23:30;2.53;;;1.35;;
70953;SDS011;58618;47.490;8.736;2022-10-03T19:26:23;1.77;;;1.23;;
70953;SDS011;58618;47.490;8.736;2022-10-03T19:29:14;1.92;;;1.40;;
70953;SDS011;58618;47.490;8.736;2022-10-03T19:32:13;2.60;;;1.52;;
70953;SDS011;58618;47.490;8.736;2022-10-03T19:35:19;2.83;;;1.67;;
70953;SDS011;58618;47.490;8.736;2022-10-03T19:38:33;2.35;;;1.55;;
70953;SDS011;58618;47.490;8.736;2022-10-03T19:41:27;1.90;;;1.33;;
70953;SDS011;58618;47.490;8.736;2022-10-03T19:44:19;2.50;;;2.05;;
70953;SDS011;58618;47.490;8.736;2022-10-03T19:47:11;1.83;;;1.48;;
70953;SDS011;58618;47.490;8.736;2022-10-03T19:50:03;2.90;;;1.63;;
70953;SDS011;58618;47.490;8.736;2022-10-03T19:52:59;2.78;;;1.65;;
70953;SDS011;58618;47.490;8.736;2022-10-03T19:55:55;7.67;;;4.70;;
70953;SDS011;58618;47.490;8.736;2022-10-03T19:58:43;3.60;;;1.85;;
70953;SDS011;58618;47.490;8.736;2022-10-03T20:01:33;2.50;;;1.70;;
70953;SDS011;58618;47.490;8.736;2022-10-03T20:04:31;3.22;;;1.75;;
70953;SDS011;58618;47.490;8.736;2022-10-03T20:07:26;3.55;;;1.65;;
70953;SDS011;58618;47.490;8.736;2022-10-03T20:10:40;2.30;;;1.60;;
70953;SDS011;58618;47.490;8.736;2022-10-03T20:13:36;2.30;;;1.58;;
70953;SDS011;58618;47.490;8.736;2022-10-03T20:16:28;2.38;;;1.45;;
70953;SDS011;58618;47.490;8.736;2022-10-03T20:19:21;3.95;;;1.75;;
70953;SDS011;58618;47.490;8.736;2022-10-03T20:22:10;3.15;;;1.73;;
70953;SDS011;58618;47.490;8.736;2022-10-03T20:25:00;2.80;;;2.00;;
70953;SDS011;58618;47.490;8.736;2022-10-03T20:27:50;2.35;;;1.45;;
70953;SDS011;58618;47.490;8.736;2022-10-03T20:30:43;2.28;;;1.40;;
70953;SDS011;58618;47.490;8.736;2022-10-03T20:33:34;4.68;;;1.77;;
70953;SDS011;58618;47.490;8.736;2022-10-03T20:36:23;2.70;;;1.70;;
70953;SDS011;58618;47.490;8.736;2022-10-03T20:39:14;2.33;;;1.20;;
70953;SDS011;58618;47.490;8.736;2022-10-03T20:42:08;2.97;;;1.98;;
70953;SDS011;58618;47.490;8.736;2022-10-03T20:45:00;2.00;;;1.40;;
70953;SDS011;58618;47.490;8.736;2022-10-03T20:47:55;3.53;;;2.00;;